Latest Weather Observations for Rottnest Island

IDW60801

Issued at 9:35 am WST Wednesday 3 September 2014 (issued every 30 minutes, with the page automatically refreshed every 10 minutes)

About weather observations | Map of weather stations | Latest weather observations for WA | Other Formats
Station Details ID: 009193 Name: ROTTNEST ISLAND Lat: -32.01 Lon: 115.50 Height: 43.1 m
Data from the previous 72 hours. | See also: Recent months at Rottnest Island
Date/Time
WST
Temp
°C
App
Temp
°C
Dew
Point
Rel
Hum
%
Delta-T
°C
Wind Press
QNH
hPa
Press
MSL
hPa
Rain
since 9 am
mm
Dir
 
Spd
km/h
Gust
km/h
Spd
kts
Gust
kts
03/09:30am 15.3 10.2 10.5 73 2.5 SSE 28 35 15 19 1022.0 1022.0 0.0
03/09:00am 15.4 9.9 10.6 73 2.5 SSE 30 39 16 21 1021.6 1021.6 0.0
03/08:30am 15.3 9.9 10.9 75 2.3 SSE 30 39 16 21 1021.6 1021.6 0.0
03/08:00am 15.4 9.7 11.2 76 2.2 SSE 32 39 17 21 1021.8 1021.8 0.0
03/07:30am 15.2 9.2 10.8 75 2.3 SSE 33 43 18 23 1021.2 1021.2 0.0
03/07:00am 15.2 8.3 10.4 73 2.5 S 37 43 20 23 1020.5 1020.5 0.0
03/06:30am 15.2 9.9 11.2 77 2.1 SSE 30 35 16 19 1020.7 1020.7 0.0
03/06:00am 15.3 9.0 11.1 76 2.2 S 35 46 19 25 1020.1 1020.1 0.0
03/05:30am 15.3 9.4 11.3 77 2.1 S 33 41 18 22 1020.3 1020.3 0.0
03/05:00am 15.5 10.0 11.7 78 2.1 SSE 32 43 17 23 1020.2 1020.2 0.0
03/04:30am 15.6 10.0 12.0 79 2.0 SSE 33 41 18 22 1019.9 1019.9 0.0
03/04:00am 15.9 9.1 12.1 78 2.1 S 39 48 21 26 1019.4 1019.4 0.0
03/03:30am 15.8 8.8 11.4 75 2.4 SSE 39 46 21 25 1019.5 1019.5 0.0
03/03:00am 15.9 10.1 12.6 81 1.8 SSE 35 43 19 23 1019.2 1019.1 0.0
03/02:30am 16.3 11.0 13.2 82 1.7 SSE 33 41 18 22 1019.6 1019.6 0.0
03/02:00am 16.6 11.7 13.7 83 1.6 SSE 32 41 17 22 1019.5 1019.5 0.0
03/01:30am 16.7 12.5 13.4 81 1.9 SE 28 35 15 19 1019.5 1019.5 0.0
03/01:00am 17.2 14.5 13.5 79 2.1 SSE 20 28 11 15 1019.4 1019.4 0.0
03/12:30am 17.2 13.9 12.9 76 2.4 SE 22 30 12 16 1019.2 1019.1 0.0
03/12:00am 17.2 14.4 13.3 78 2.2 SSE 20 26 11 14 1019.4 1019.4 0.0
 
Date/Time
WST
Temp
°C
App
Temp
°C
Dew
Point
Rel
Hum
%
Delta-T
°C
Wind Press
QNH
hPa
Press
MSL
hPa
Rain
since 9 am
mm
Dir
 
Spd
km/h
Gust
km/h
Spd
kts
Gust
kts
02/11:30pm 17.4 14.9 13.5 78 2.2 SSE 19 24 10 13 1019.3 1019.3 0.0
02/11:00pm 17.6 14.7 13.9 79 2.1 S 22 30 12 16 1019.4 1019.4 0.0
02/10:30pm 17.8 13.3 13.7 77 2.3 S 30 35 16 19 1019.2 1019.1 0.0
02/10:00pm 18.0 14.2 13.5 75 2.5 S 26 30 14 16 1019.1 1019.0 0.0
02/09:30pm 18.1 14.5 13.2 73 2.8 S 24 28 13 15 1019.2 1019.1 0.0
02/09:00pm 18.1 14.9 13.0 72 2.9 S 22 28 12 15 1019.1 1019.0 0.0
02/08:30pm 18.4 15.5 12.4 68 3.3 S 19 22 10 12 1019.1 1019.0 0.0
02/08:00pm 18.5 15.2 11.6 64 3.8 S 20 26 11 14 1019.1 1019.0 0.0
02/07:30pm 18.5 14.4 11.3 63 3.9 SSW 24 30 13 16 1018.9 1018.8 0.0
02/07:00pm 18.1 14.3 11.2 64 3.7 SSW 22 28 12 15 1018.2 1018.1 0.0
02/06:30pm 18.5 14.3 11.1 62 4.0 SSW 24 30 13 16 1017.7 1017.6 0.0
02/06:00pm 18.6 14.0 10.9 61 4.2 SSW 26 30 14 16 1017.6 1017.5 0.0
02/05:30pm 18.6 15.6 12.6 68 3.4 SW 20 26 11 14 1017.3 1017.2 0.0
02/05:00pm 18.6 16.3 13.0 70 3.2 SW 17 22 9 12 1016.9 1016.8 0.0
02/04:30pm 18.8 17.1 13.6 72 3.0 SSW 15 17 8 9 1016.2 1016.1 0.0
02/04:00pm 19.1 17.8 13.7 71 3.1 SW 13 15 7 8 1015.9 1015.8 0.0
02/03:30pm 19.0 17.9 13.2 69 3.3 SW 11 13 6 7 1015.7 1015.6 0.0
02/03:00pm 18.8 17.2 12.8 68 3.4 SW 13 17 7 9 1015.7 1015.6 0.0
02/02:30pm 19.2 17.1 12.5 65 3.8 W 15 17 8 9 1015.6 1015.5 0.0
02/02:00pm 19.0 17.0 12.7 67 3.5 W 15 19 8 10 1015.5 1015.4 0.0
02/01:30pm 18.5 16.8 12.3 67 3.4 NW 13 17 7 9 1015.5 1015.4 0.0
02/01:00pm 18.5 17.0 11.8 65 3.7 NW 11 13 6 7 1015.3 1015.2 0.0
02/12:30pm 18.7 16.9 10.8 60 4.3 N 11 15 6 8 1015.1 1015.0 0.0
02/12:00pm 18.5 16.2 11.8 65 3.7 NE 15 19 8 10 1015.1 1015.0 0.0
02/11:30am 18.0 15.8 10.9 63 3.8 NNE 13 17 7 9 1015.5 1015.4 0.0
02/11:00am 17.5 14.8 10.4 63 3.8 NNE 15 19 8 10 1016.3 1016.2 0.0
02/10:30am 17.5 14.5 10.6 64 3.7 NE 17 22 9 12 1016.3 1016.2 0.0
02/10:00am 16.9 14.7 10.7 67 3.3 NE 13 15 7 8 1016.4 1016.3 0.0
02/09:30am 16.5 15.1 11.0 70 3.0 NE 9 11 5 6 1016.4 1016.3 0.0
02/09:00am 16.4 14.6 10.9 70 2.9 NE 11 15 6 8 1016.7 1016.6 0.0
02/08:30am 16.1 13.0 10.4 69 3.0 ENE 17 19 9 10 1016.2 1016.1 0.0
02/08:00am 16.0 14.0 10.1 68 3.1 NE 11 17 6 9 1016.6 1016.5 0.0
02/07:30am 15.7 12.1 10.0 69 3.0 E 19 24 10 13 1015.3 1015.2 0.0
02/07:00am 15.7 12.5 10.0 69 3.0 NE 17 22 9 12 1016.4 1016.3 0.0
02/06:30am 15.6 12.2 9.3 66 3.3 NE 17 20 9 11 1016.1 1016.0 0.0
02/06:00am 15.4 12.4 9.3 67 3.1 ENE 15 17 8 9 1016.5 1016.4 0.0
02/05:30am 15.4 13.1 8.9 65 3.3 ENE 11 11 6 6 1016.4 1016.3 0.0
02/05:00am 15.3 13.7 8.8 65 3.3 E 7 9 4 5 1016.4 1016.3 0.0
02/04:30am 15.6 13.1 8.4 62 3.7 NE 11 17 6 9 1016.1 1016.0 0.0
02/04:00am 15.2 12.7 8.2 63 3.5 E 11 15 6 8 1016.5 1016.4 0.0
02/03:30am 15.3 12.4 8.3 63 3.5 E 13 17 7 9 1016.5 1016.4 0.0
02/03:00am 15.3 12.8 8.1 62 3.6 E 11 15 6 8 1016.6 1016.5 0.0
02/02:30am 14.9 11.4 8.8 67 3.1 SE 17 20 9 11 1016.6 1016.5 0.0
02/02:00am 15.8 12.1 7.8 59 4.0 SE 17 20 9 11 1017.1 1017.0 0.0
02/01:30am 15.6 12.3 8.1 61 3.8 SE 15 17 8 9 1017.8 1017.7 0.0
02/01:00am 15.4 12.5 6.7 56 4.2 ESE 11 15 6 8 1018.4 1018.3 0.0
02/12:30am 15.6 12.3 6.3 54 4.5 E 13 15 7 8 1018.6 1018.5 0.0
02/12:00am 15.4 12.0 6.1 54 4.5 E 13 20 7 11 1018.6 1018.5 0.0
 
Date/Time
WST
Temp
°C
App
Temp
°C
Dew
Point
Rel
Hum
%
Delta-T
°C
Wind Press
QNH
hPa
Press
MSL
hPa
Rain
since 9 am
mm
Dir
 
Spd
km/h
Gust
km/h
Spd
kts
Gust
kts
01/11:30pm 15.4 12.2 6.7 56 4.3 E 13 17 7 9 1018.9 1018.8 0.0
01/11:00pm 15.3 11.7 6.8 57 4.2 E 15 19 8 10 1019.1 1019.0 0.0
01/10:30pm 15.3 11.8 7.1 58 4.0 E 15 20 8 11 1019.4 1019.4 0.0
01/10:00pm 15.4 12.2 6.9 57 4.2 E 13 19 7 10 1019.7 1019.7 0.0
01/09:30pm 15.6 11.6 6.6 55 4.4 ESE 17 20 9 11 1019.6 1019.6 0.0
01/09:00pm 15.8 12.3 7.0 56 4.3 ESE 15 19 8 10 1020.0 1020.0 0.0
01/08:30pm 16.0 12.3 6.4 53 4.7 E 15 20 8 11 1020.3 1020.3 0.0
01/08:00pm 15.8 11.8 6.5 54 4.5 E 17 22 9 12 1020.2 1020.2 0.0
01/07:30pm 15.8 11.8 6.5 54 4.5 E 17 22 9 12 1020.1 1020.1 0.0
01/07:00pm 15.8 11.7 6.3 53 4.6 E 17 24 9 13 1019.9 1019.9 0.0
01/06:30pm 15.7 12.1 6.7 55 4.4 E 15 20 8 11 1020.3 1020.3 0.0
01/06:00pm 15.9 12.7 6.9 55 4.4 E 13 17 7 9 1020.7 1020.7 0.0
01/05:30pm 16.5 12.6 6.9 53 4.8 ENE 17 24 9 13 1020.5 1020.5 0.0
01/05:00pm 17.0 13.5 7.4 53 4.8 NE 15 20 8 11 1020.3 1020.3 0.0
01/04:30pm 17.2 13.7 7.3 52 5.0 ENE 15 20 8 11 1019.9 1019.9 0.0
01/04:00pm 17.6 13.7 7.1 50 5.2 NE 17 26 9 14 1019.8 1019.8 0.0
01/03:30pm 17.4 13.9 7.2 51 5.1 ENE 15 22 8 12 1019.9 1019.9 0.0
01/03:00pm 17.9 13.6 7.0 49 5.4 NE 19 26 10 14 1020.3 1020.3 0.0
01/02:30pm 17.9 13.6 7.0 49 5.5 NE 19 24 10 13 1020.1 1020.1 0.0
01/02:00pm 17.2 12.2 6.4 49 5.3 NE 22 30 12 16 1020.3 1020.3 0.0
01/01:30pm 17.6 13.3 7.9 53 4.9 NE 20 28 11 15 1020.8 1020.8 0.0
01/01:00pm 17.1 12.2 6.9 51 5.1 ENE 22 32 12 17 1021.0 1021.0 0.0
01/12:30pm 17.0 12.2 7.4 53 4.8 ENE 22 35 12 19 1021.5 1021.5 0.0
01/12:00pm 16.0 10.6 6.4 53 4.7 ENE 24 32 13 17 1022.2 1022.2 0.0
01/11:30am 16.3 10.9 6.4 52 4.8 ENE 24 33 13 18 1022.9 1022.9 0.0
01/11:00am 15.5 9.6 6.0 53 4.6 ENE 26 37 14 20 1023.1 1023.1 0.0
01/10:30am 15.6 11.2 7.4 58 4.1 ENE 20 28 11 15 1023.1 1023.1 0.0
01/10:00am 15.1 10.4 7.6 61 3.7 ENE 22 33 12 18 1023.3 1023.3 0.0
01/09:30am 14.2 8.9 7.0 62 3.5 ENE 24 37 13 20 1023.4 1023.4 0.0
01/09:00am 13.3 7.3 6.9 65 3.1 ENE 28 37 15 20 1023.4 1023.4 0.0
01/08:30am 13.0 7.4 7.0 67 2.9 ENE 26 35 14 19 1023.5 1023.5 0.0
01/08:00am 12.3 7.0 6.8 69 2.6 ENE 24 35 13 19 1023.3 1023.3 0.0
01/07:30am 12.1 6.5 7.0 71 2.5 ENE 26 35 14 19 1023.3 1023.3 0.0
01/07:00am 11.6 6.2 6.5 71 2.4 ENE 24 33 13 18 1023.2 1023.2 0.0
01/06:30am 11.7 6.6 6.2 69 2.6 E 22 32 12 17 1022.9 1022.9 0.0
01/06:00am 11.5 7.4 6.2 70 2.5 E 17 26 9 14 1022.3 1022.3 0.0
01/05:30am 11.5 6.8 6.2 70 2.5 E 20 28 11 15 1021.9 1021.9 0.0
01/05:00am 11.4 7.3 6.1 70 2.5 E 17 26 9 14 1021.4 1021.4 0.0
01/04:30am 11.7 7.0 6.2 69 2.6 E 20 26 11 14 1021.5 1021.5 0.0
01/04:00am 11.6 7.1 6.1 69 2.6 E 19 28 10 15 1021.6 1021.6 0.0
01/03:30am 12.0 7.5 6.3 68 2.7 E 19 28 10 15 1021.5 1021.5 0.0
01/03:00am 12.3 7.6 6.1 66 2.9 E 20 28 11 15 1021.6 1021.6 0.0
01/02:30am 12.5 8.0 6.3 66 2.9 E 19 26 10 14 1021.5 1021.5 0.0
01/02:00am 13.0 8.7 7.0 67 2.9 ESE 19 26 10 14 1021.5 1021.5 0.0
01/01:30am 13.7 7.7 7.2 65 3.2 SE 28 33 15 18 1021.5 1021.5 0.0
01/01:00am 14.0 7.6 7.1 63 3.4 SE 30 37 16 20 1021.2 1021.2 0.0
01/12:30am 14.1 8.1 6.9 62 3.5 SE 28 37 15 20 1021.3 1021.3 0.0
01/12:00am 14.3 8.6 6.6 60 3.7 SSE 26 35 14 19 1021.4 1021.4 0.0
 
Date/Time
WST
Temp
°C
App
Temp
°C
Dew
Point
Rel
Hum
%
Delta-T
°C
Wind Press
QNH
hPa
Press
MSL
hPa
Rain
since 9 am
mm
Dir
 
Spd
km/h
Gust
km/h
Spd
kts
Gust
kts
31/11:30pm 14.5 8.2 7.3 62 3.5 SE 30 35 16 19 1021.5 1021.5 0.0
31/11:00pm 14.7 8.8 7.3 61 3.6 SSE 28 33 15 18 1021.6 1021.6 0.0
31/10:30pm 14.7 9.1 7.0 60 3.8 SSE 26 35 14 19 1021.6 1021.6 0.0
31/10:00pm 14.9 8.9 7.0 59 3.9 SSE 28 37 15 20 1021.8 1021.8 0.0
31/09:30pm 14.9 8.3 6.2 56 4.2 S 30 37 16 20 1021.8 1021.8 0.0
31/09:00pm 15.0 8.9 6.6 57 4.1 S 28 35 15 19 1021.7 1021.7 0.0
31/08:30pm 14.9 8.5 7.0 59 3.9 S 30 39 16 21 1021.5 1021.5 0.0
31/08:00pm 14.8 7.9 6.6 58 4.0 S 32 37 17 20 1021.0 1021.0 0.0
31/07:30pm 14.8 8.2 6.1 56 4.2 S 30 35 16 19 1020.8 1020.8 0.0
31/07:00pm 14.9 8.3 6.0 55 4.3 S 30 37 16 20 1020.8 1020.8 0.0
31/06:30pm 14.7 8.5 6.3 57 4.1 S 28 35 15 19 1020.4 1020.4 0.0
31/06:00pm 14.9 8.2 5.4 53 4.5 S 30 35 16 19 1020.1 1020.1 0.0
31/05:30pm 14.8 8.2 5.9 55 4.3 S 30 35 16 19 1019.9 1019.9 0.0
31/05:00pm 15.1 9.3 6.4 56 4.2 S 26 35 14 19 1020.1 1020.1 0.0
31/04:30pm 15.6 9.9 6.9 56 4.3 S 26 32 14 17 1020.0 1020.0 0.0
31/04:00pm 15.8 11.4 7.3 57 4.2 S 20 28 11 15 1019.7 1019.7 0.0
31/03:30pm 15.6 11.2 7.4 58 4.1 S 20 26 11 14 1019.1 1019.1 0.0
31/03:00pm 15.4 11.1 6.9 57 4.2 S 19 22 10 12 1019.2 1019.2 0.0
31/02:30pm 15.2 10.5 6.2 55 4.4 S 20 26 11 14 1019.1 1019.1 0.0
31/02:00pm 15.6 11.2 6.6 55 4.4 SSE 19 26 10 14 1018.9 1018.9 0.0
31/01:30pm 15.8 11.8 6.8 55 4.4 SE 17 24 9 13 1019.3 1019.3 0.0
31/01:00pm 15.5 11.1 7.3 58 4.1 SSE 20 30 11 16 1019.4 1019.4 0.0
31/12:30pm 15.8 11.0 7.3 57 4.2 SSE 22 30 12 16 1019.4 1019.4 0.0
31/12:00pm 15.5 10.8 7.8 60 3.8 SE 22 30 12 16 1019.8 1019.8 0.0
31/11:30am 15.2 10.3 8.4 64 3.4 SE 24 30 13 16 1019.9 1019.9 0.0
31/11:00am 14.8 8.8 7.1 60 3.8 SE 28 35 15 19 1019.7 1019.7 0.0
31/10:30am 14.7 9.2 7.5 62 3.6 SE 26 35 14 19 1020.0 1020.0 0.0
31/10:00am 14.5 11.1 7.5 63 3.4 ESE 15 20 8 11 1020.0 1020.0 0.0

Other Formats:

Comma delimited format used in spreadsheet applications
http://www.bom.gov.au/fwo/IDW60801/IDW60801.94602.axf

JavaScript Object Notation format (JSON) in row-major order
http://www.bom.gov.au/fwo/IDW60801/IDW60801.94602.json